Time;durP1;ratioP1;P1;durP2;ratioP2;P2;SDS_P1;SDS_P2;PMS_P1;PMS_P2;Temp;Humidity;BMP_temperature;BMP_pressure;BME280_temperature;BME280_humidity;BME280_pressure;Samples;Min_cycle;Max_cycle;Signal;HPM_P1;HPM_P2
2022/01/21 00:01:29;;;;;;;93.83;41.83;;;4.60;94.70;;;;;;5132396;27;20740;-69
2022/01/21 00:03:57;;;;;;;92.60;40.43;;;4.60;94.70;;;;;;5130598;27;20215;-69
2022/01/21 00:06:24;;;;;;;95.33;40.30;;;4.60;94.70;;;;;;5120150;27;20208;-68
2022/01/21 00:08:51;;;;;;;97.53;40.30;;;4.50;94.70;;;;;;5102287;28;20219;-69
2022/01/21 00:11:20;;;;;;;97.27;41.40;;;4.60;94.80;;;;;;5124695;27;20223;-69
2022/01/21 00:13:47;;;;;;;107.87;41.53;;;4.60;94.90;;;;;;5122181;27;20209;-69
2022/01/21 00:16:20;;;;;;;106.03;44.20;;;4.60;94.80;;;;;;5109964;27;20194;-69
2022/01/21 00:18:55;;;;;;;93.27;38.33;;;4.50;94.50;;;;;;5102111;28;20205;-69
2022/01/21 00:32:26;;;;;;;94.63;36.63;;;4.50;94.60;;;;;;5108452;28;20209;-69
2022/01/21 00:34:53;;;;;;;101.17;39.43;;;4.40;94.50;;;;;;5126450;28;20202;-69
2022/01/21 00:37:20;;;;;;;83.63;39.10;;;4.40;94.60;;;;;;5142760;27;20325;-69
2022/01/21 00:39:53;;;;;;;91.43;38.60;;;4.40;94.70;;;;;;5110349;28;20667;-68
2022/01/21 00:44:49;;;;;;;101.80;39.50;;;4.40;94.60;;;;;;5110288;28;20214;-69
2022/01/21 00:47:17;;;;;;;91.10;39.43;;;4.40;94.70;;;;;;5110595;28;20222;-69
2022/01/21 00:49:44;;;;;;;102.67;41.13;;;4.40;94.70;;;;;;5137746;27;20197;-69
2022/01/21 00:52:11;;;;;;;96.40;39.40;;;4.40;94.70;;;;;;5113199;28;20213;-69
2022/01/21 00:54:40;;;;;;;105.10;41.33;;;4.40;94.60;;;;;;5140529;27;20216;-69
2022/01/21 00:57:07;;;;;;;104.27;39.67;;;4.40;94.50;;;;;;5114147;28;20671;-69
2022/01/21 00:59:35;;;;;;;85.40;38.90;;;4.40;94.60;;;;;;5109061;28;20514;-69
2022/01/21 01:02:02;;;;;;;96.50;41.40;;;4.50;94.50;;;;;;5139690;27;20222;-69
2022/01/21 01:04:30;;;;;;;90.97;38.43;;;4.40;94.50;;;;;;5103413;28;20250;-69
2022/01/21 01:06:59;;;;;;;94.47;38.73;;;4.50;94.60;;;;;;5125554;28;20313;-69
2022/01/21 01:09:26;;;;;;;99.03;40.50;;;4.50;94.50;;;;;;5107531;28;20211;-69
2022/01/21 01:20:01;;;;;;;103.77;39.63;;;4.50;94.70;;;;;;5126979;28;20211;-69
2022/01/21 01:22:49;;;;;;;91.57;38.90;;;4.50;94.70;;;;;;5123133;28;20219;-69
2022/01/21 01:28:03;;;;;;;101.70;40.37;;;4.50;94.70;;;;;;5129339;28;20197;-69
2022/01/21 01:30:32;;;;;;;97.23;38.70;;;4.60;94.60;;;;;;5108507;28;20280;-69
2022/01/21 01:33:01;;;;;;;96.80;40.87;;;4.60;94.70;;;;;;5127300;28;20206;-69
2022/01/21 01:35:32;;;;;;;89.97;39.00;;;4.60;94.70;;;;;;5128797;27;20637;-69
2022/01/21 01:40:50;;;;;;;89.33;38.77;;;4.60;94.70;;;;;;5113930;27;20552;-69
2022/01/21 01:51:19;;;;;;;93.27;37.53;;;4.70;94.60;;;;;;5130638;27;20227;-69
2022/01/21 01:54:17;;;;;;;95.63;38.63;;;4.70;94.80;;;;;;5100804;27;20218;-69
2022/01/21 01:56:50;;;;;;;98.43;40.07;;;4.70;94.60;;;;;;5107209;27;20209;-69
2022/01/21 01:59:17;;;;;;;97.93;42.03;;;4.70;94.60;;;;;;5087537;27;20256;-69
2022/01/21 02:02:04;;;;;;;99.73;39.50;;;4.70;94.60;;;;;;5105803;27;20637;-69
2022/01/21 02:04:32;;;;;;;101.97;40.00;;;4.70;94.70;;;;;;5108863;27;20656;-69
2022/01/21 02:07:02;;;;;;;109.73;39.73;;;4.70;94.70;;;;;;5145357;27;20197;-69
2022/01/21 02:09:29;;;;;;;105.53;41.00;;;4.80;94.80;;;;;;5108655;27;20229;-69
2022/01/21 02:11:57;;;;;;;103.07;41.37;;;4.80;94.70;;;;;;5111181;27;20237;-69
2022/01/21 02:14:31;;;;;;;111.37;39.67;;;4.80;94.80;;;;;;5119365;27;20206;-69
2022/01/21 02:22:14;;;;;;;107.03;41.93;;;4.80;94.80;;;;;;5134670;27;20270;-69
2022/01/21 02:24:57;;;;;;;100.17;41.13;;;4.80;94.80;;;;;;5102005;28;20255;-69
2022/01/21 02:27:25;;;;;;;108.87;41.47;;;4.80;94.80;;;;;;5115513;27;20210;-69
2022/01/21 02:30:01;;;;;;;112.50;42.27;;;4.90;94.80;;;;;;5098448;28;20271;-69
2022/01/21 02:32:31;;;;;;;103.50;43.37;;;4.90;94.80;;;;;;5104358;28;20209;-69
2022/01/21 02:34:58;;;;;;;112.83;43.97;;;4.90;94.60;;;;;;5112256;27;20231;-69
2022/01/21 02:37:25;;;;;;;117.10;44.80;;;4.90;94.60;;;;;;5121718;27;20553;-69
2022/01/21 02:39:52;;;;;;;109.37;42.63;;;4.80;94.50;;;;;;5118225;27;20236;-69
2022/01/21 02:42:19;;;;;;;101.80;41.53;;;4.80;94.60;;;;;;5085467;27;20218;-69
2022/01/21 02:44:47;;;;;;;119.03;43.13;;;4.80;94.70;;;;;;5120740;27;20591;-69
2022/01/21 02:47:15;;;;;;;118.10;42.90;;;4.80;94.70;;;;;;5101019;28;20604;-69
2022/01/21 02:49:48;;;;;;;122.43;44.10;;;4.70;94.70;;;;;;5115830;27;20560;-69
2022/01/21 02:52:18;;;;;;;121.77;44.43;;;4.70;94.80;;;;;;5144863;27;20229;-69
2022/01/21 02:54:45;;;;;;;121.70;43.10;;;4.70;94.90;;;;;;5118253;27;20663;-69
2022/01/21 02:57:12;;;;;;;110.97;42.37;;;4.80;95.00;;;;;;5130828;27;20200;-69
2022/01/21 02:59:39;;;;;;;126.27;44.73;;;4.80;95.10;;;;;;5122589;27;20206;-69
2022/01/21 03:02:08;;;;;;;122.43;45.00;;;4.80;95.10;;;;;;5101980;27;20225;-69
2022/01/21 03:04:50;;;;;;;118.10;41.97;;;4.80;95.10;;;;;;5109671;28;20634;-69
2022/01/21 03:07:18;;;;;;;126.13;43.17;;;4.80;95.00;;;;;;5120557;27;20705;-68
2022/01/21 03:09:45;;;;;;;116.83;42.47;;;4.80;95.00;;;;;;5103568;28;20306;-68
2022/01/21 03:12:12;;;;;;;120.30;44.07;;;4.80;95.00;;;;;;5129810;27;20236;-68
2022/01/21 03:14:39;;;;;;;112.70;41.87;;;4.80;95.10;;;;;;5116416;27;20212;-68
2022/01/21 03:17:06;;;;;;;113.73;42.90;;;4.80;95.10;;;;;;5107671;27;20216;-68
2022/01/21 03:19:34;;;;;;;117.77;43.93;;;4.80;95.10;;;;;;5106360;28;20202;-69
2022/01/21 03:22:02;;;;;;;125.53;44.97;;;4.80;95.20;;;;;;5133372;27;20280;-69
2022/01/21 03:24:29;;;;;;;126.40;45.07;;;4.80;95.20;;;;;;5116638;27;20206;-69
2022/01/21 03:26:56;;;;;;;117.70;43.60;;;4.90;95.20;;;;;;5129452;27;20267;-68
2022/01/21 03:29:24;;;;;;;134.60;47.70;;;4.90;95.10;;;;;;5136726;27;20259;-70
2022/01/21 03:31:51;;;;;;;154.97;48.00;;;4.90;95.10;;;;;;5148589;27;20237;-69
2022/01/21 03:34:19;;;;;;;150.13;48.47;;;4.90;95.10;;;;;;5131898;27;20220;-69
2022/01/21 03:36:47;;;;;;;139.63;47.50;;;4.90;95.10;;;;;;5130635;27;20288;-69
2022/01/21 03:39:14;;;;;;;139.47;46.40;;;4.90;95.10;;;;;;5113911;27;20243;-69
2022/01/21 03:41:42;;;;;;;150.17;47.53;;;4.90;95.00;;;;;;5113349;27;20218;-69
2022/01/21 03:44:11;;;;;;;144.40;45.57;;;4.90;95.00;;;;;;5132435;27;20660;-68
2022/01/21 03:46:39;;;;;;;147.80;47.90;;;4.90;95.00;;;;;;5146947;27;20647;-68
2022/01/21 03:49:08;;;;;;;164.57;47.40;;;4.90;95.00;;;;;;5112795;27;20235;-68
2022/01/21 03:51:37;;;;;;;161.37;49.43;;;4.90;95.00;;;;;;5146008;27;20231;-68
2022/01/21 03:54:05;;;;;;;141.30;47.33;;;4.90;95.00;;;;;;5112261;27;20207;-68
2022/01/21 03:56:32;;;;;;;147.17;47.03;;;4.90;94.90;;;;;;5145529;27;20225;-67
2022/01/21 03:58:59;;;;;;;141.00;45.03;;;4.90;94.90;;;;;;5112134;27;20638;-67
2022/01/21 04:01:28;;;;;;;148.80;48.07;;;4.90;95.00;;;;;;5132877;27;20222;-67
2022/01/21 04:03:56;;;;;;;159.63;49.40;;;4.90;95.00;;;;;;5127361;27;20206;-67
2022/01/21 04:06:24;;;;;;;159.37;50.17;;;4.90;95.00;;;;;;5106764;28;20206;-68
2022/01/21 04:08:52;;;;;;;170.80;51.03;;;4.90;95.00;;;;;;5141417;27;20247;-67
2022/01/21 04:11:19;;;;;;;168.40;51.03;;;4.90;95.00;;;;;;5122481;27;20261;-67
2022/01/21 04:13:48;;;;;;;172.43;50.40;;;4.90;94.90;;;;;;5105624;28;20215;-67
2022/01/21 04:16:17;;;;;;;165.27;48.60;;;4.90;94.80;;;;;;5106139;27;20222;-68
2022/01/21 04:18:45;;;;;;;195.87;52.67;;;4.90;94.70;;;;;;5114526;28;20291;-68
2022/01/21 04:21:13;;;;;;;174.03;48.20;;;4.90;94.80;;;;;;5107407;28;20226;-67
2022/01/21 04:23:41;;;;;;;179.63;50.13;;;4.90;94.80;;;;;;5105622;28;20236;-67
2022/01/21 04:26:13;;;;;;;166.43;51.17;;;4.90;94.80;;;;;;5109710;27;20220;-67
2022/01/21 04:28:40;;;;;;;166.37;49.60;;;4.90;94.90;;;;;;5124312;27;20197;-68
2022/01/21 04:31:07;;;;;;;176.37;49.07;;;4.90;94.90;;;;;;5125016;28;20610;-67
2022/01/21 04:33:43;;;;;;;176.93;52.07;;;4.90;95.00;;;;;;5113015;28;20212;-68
2022/01/21 04:36:11;;;;;;;171.37;49.03;;;4.90;95.00;;;;;;5104183;28;20256;-67
2022/01/21 04:38:39;;;;;;;167.83;49.53;;;4.90;95.00;;;;;;5114457;28;20241;-67
2022/01/21 04:49:13;;;;;;;148.70;50.77;;;5.00;95.10;;;;;;5107201;28;20219;-67
2022/01/21 04:52:01;;;;;;;161.13;47.23;;;5.00;95.00;;;;;;5133459;27;20256;-67
2022/01/21 04:54:33;;;;;;;156.23;49.80;;;5.00;94.90;;;;;;5133615;27;20216;-67
2022/01/21 04:57:03;;;;;;;159.97;49.37;;;5.00;94.90;;;;;;5138202;27;20201;-67
2022/01/21 04:59:30;;;;;;;173.63;51.57;;;4.90;94.90;;;;;;5117319;28;20274;-67
2022/01/21 05:01:58;;;;;;;170.43;52.43;;;4.90;95.00;;;;;;5102800;28;20309;-67
2022/01/21 05:04:26;;;;;;;170.57;47.47;;;4.90;95.00;;;;;;5114497;28;20229;-67
2022/01/21 05:06:54;;;;;;;191.00;51.13;;;4.90;95.00;;;;;;5103355;28;20228;-67
2022/01/21 05:09:29;;;;;;;184.43;54.87;;;4.90;95.10;;;;;;5135703;27;20634;-67
2022/01/21 05:11:59;;;;;;;199.80;52.87;;;4.90;95.10;;;;;;5108066;27;20240;-67
2022/01/21 05:14:45;;;;;;;184.53;53.90;;;4.90;95.10;;;;;;5101101;28;20210;-67
2022/01/21 05:17:14;;;;;;;208.40;53.03;;;4.90;95.10;;;;;;5134375;27;20213;-67
2022/01/21 05:19:42;;;;;;;195.97;54.80;;;4.90;95.10;;;;;;5110819;28;20198;-67
2022/01/21 05:22:47;;;;;;;198.30;51.47;;;4.90;95.10;;;;;;5094028;28;20660;-68
2022/01/21 05:25:18;;;;;;;194.90;55.90;;;4.90;95.10;;;;;;5079267;28;20248;-68
2022/01/21 05:27:53;;;;;;;200.03;54.00;;;5.00;95.10;;;;;;5080871;27;20270;-69
2022/01/21 05:30:21;;;;;;;202.37;54.37;;;5.00;95.10;;;;;;5120009;27;20277;-68
2022/01/21 05:33:08;;;;;;;208.33;53.97;;;5.00;95.10;;;;;;5111812;27;20779;-69
2022/01/21 05:35:54;;;;;;;223.43;55.50;;;5.00;95.10;;;;;;5127702;27;20558;-68
2022/01/21 05:38:41;;;;;;;217.77;55.13;;;5.00;95.10;;;;;;5105620;28;20236;-69
2022/01/21 05:41:27;;;;;;;202.47;54.07;;;4.90;95.10;;;;;;5121412;27;20220;-68
2022/01/21 05:47:20;;;;;;;216.03;55.83;;;4.90;95.10;;;;;;5112500;27;20217;-68
2022/01/21 05:50:28;;;;;;;226.27;56.33;;;5.00;95.10;;;;;;5025585;28;20300;-68
2022/01/21 05:53:10;;;;;;;199.27;57.20;;;5.00;95.10;;;;;;5096782;27;20269;-68
2022/01/21 05:56:09;;;;;;;211.00;55.50;;;5.00;95.10;;;;;;5097220;27;20665;-68
2022/01/21 05:58:51;;;;;;;231.33;58.30;;;4.90;95.10;;;;;;5105690;27;20215;-68
2022/01/21 06:01:19;;;;;;;206.87;55.47;;;5.00;95.20;;;;;;5108905;27;20611;-68
2022/01/21 06:03:46;;;;;;;213.90;55.70;;;4.90;95.10;;;;;;5148697;27;20237;-68
2022/01/21 06:06:13;;;;;;;189.90;53.47;;;5.00;95.20;;;;;;5108895;27;20610;-68
2022/01/21 06:08:41;;;;;;;204.10;55.13;;;4.90;95.20;;;;;;5114354;27;20207;-68
2022/01/21 06:11:08;;;;;;;203.37;55.93;;;5.00;95.20;;;;;;5110064;27;20209;-69
2022/01/21 06:13:36;;;;;;;230.73;60.83;;;5.00;95.20;;;;;;5127612;27;20213;-68
2022/01/21 06:16:04;;;;;;;214.27;56.93;;;5.00;95.20;;;;;;5116060;27;20224;-68
2022/01/21 06:18:31;;;;;;;205.30;59.90;;;5.00;95.20;;;;;;5125330;27;20204;-68
2022/01/21 06:20:58;;;;;;;235.90;56.53;;;5.00;95.20;;;;;;5128785;27;20217;-68
2022/01/21 06:23:26;;;;;;;216.23;55.73;;;5.00;95.20;;;;;;5110840;27;20221;-68
2022/01/21 06:25:53;;;;;;;212.80;56.67;;;5.00;95.20;;;;;;5141484;27;20276;-68
2022/01/21 06:28:21;;;;;;;219.83;57.30;;;5.00;95.10;;;;;;5127321;27;20550;-68
2022/01/21 06:30:49;;;;;;;181.23;53.90;;;5.00;95.20;;;;;;5111100;27;20225;-68
2022/01/21 06:33:16;;;;;;;203.40;56.37;;;5.00;95.20;;;;;;5111673;27;20258;-68
2022/01/21 06:35:43;;;;;;;218.70;56.70;;;5.00;95.20;;;;;;5126095;27;20202;-68
2022/01/21 06:38:10;;;;;;;187.87;58.23;;;5.00;95.20;;;;;;5126821;27;20243;-68
2022/01/21 06:40:37;;;;;;;214.73;59.53;;;5.00;95.10;;;;;;5116307;28;20225;-68
2022/01/21 06:43:06;;;;;;;222.50;61.17;;;5.00;95.00;;;;;;5126935;27;20656;-68
2022/01/21 06:45:33;;;;;;;218.43;56.20;;;4.90;95.00;;;;;;5127661;27;20209;-68
2022/01/21 06:48:02;;;;;;;220.73;56.80;;;4.90;95.00;;;;;;5125706;27;20205;-68
2022/01/21 06:50:31;;;;;;;207.87;58.70;;;4.90;95.10;;;;;;5115763;27;20320;-68
2022/01/21 06:52:59;;;;;;;216.90;54.77;;;4.90;95.30;;;;;;5116610;28;20240;-68
2022/01/21 06:55:26;;;;;;;212.53;59.33;;;4.90;94.90;;;;;;5117606;27;20325;-68
2022/01/21 06:57:53;;;;;;;235.10;56.57;;;4.90;95.00;;;;;;5128317;27;20630;-68
2022/01/21 07:00:21;;;;;;;213.83;56.67;;;4.90;95.10;;;;;;5122531;27;20300;-68
2022/01/21 07:02:50;;;;;;;199.43;55.77;;;4.90;95.10;;;;;;5125893;27;20200;-68
2022/01/21 07:05:18;;;;;;;208.20;56.23;;;5.00;95.20;;;;;;5122878;27;20216;-68
2022/01/21 07:07:45;;;;;;;210.83;58.00;;;5.00;95.20;;;;;;5143028;27;20210;-68
2022/01/21 07:10:14;;;;;;;207.40;56.53;;;5.00;95.20;;;;;;5143064;27;20205;-68
2022/01/21 07:12:43;;;;;;;200.73;57.20;;;5.00;95.10;;;;;;5139788;27;20230;-68
2022/01/21 07:15:12;;;;;;;210.27;54.87;;;5.00;95.10;;;;;;5121797;27;20287;-68
2022/01/21 07:17:39;;;;;;;174.67;53.67;;;5.00;95.10;;;;;;5114558;27;20196;-68
2022/01/21 07:20:06;;;;;;;200.23;57.07;;;5.00;95.10;;;;;;5126840;27;20217;-68
2022/01/21 07:22:33;;;;;;;194.87;52.53;;;5.00;95.20;;;;;;5122230;27;20300;-69
2022/01/21 07:25:00;;;;;;;195.63;57.83;;;5.00;95.20;;;;;;5123110;27;20205;-69
2022/01/21 07:27:27;;;;;;;196.17;53.63;;;5.00;95.10;;;;;;5110018;27;20255;-69
2022/01/21 07:29:54;;;;;;;200.47;58.40;;;5.00;95.10;;;;;;5120515;27;20201;-69
2022/01/21 07:32:21;;;;;;;185.13;55.57;;;5.10;95.20;;;;;;5119749;27;20250;-69
2022/01/21 07:34:48;;;;;;;189.33;53.67;;;5.10;95.10;;;;;;5112073;27;20263;-69
2022/01/21 07:37:15;;;;;;;199.80;58.10;;;5.10;95.10;;;;;;5123066;27;20222;-69
2022/01/21 07:39:42;;;;;;;174.50;55.27;;;5.10;95.10;;;;;;5118650;27;20213;-69
2022/01/21 07:42:10;;;;;;;187.83;56.00;;;5.10;95.00;;;;;;5107887;27;20263;-69
2022/01/21 07:44:38;;;;;;;184.53;53.23;;;5.10;94.90;;;;;;5119831;27;20220;-68
2022/01/21 07:47:06;;;;;;;188.10;55.63;;;5.00;94.60;;;;;;5116949;27;20285;-69
2022/01/21 07:49:33;;;;;;;190.90;56.13;;;5.00;94.70;;;;;;5101753;27;20201;-69
2022/01/21 07:52:00;;;;;;;205.90;56.83;;;5.00;94.80;;;;;;5103205;27;20211;-69
2022/01/21 07:54:27;;;;;;;186.37;56.40;;;5.00;94.90;;;;;;5116908;27;20206;-69
2022/01/21 07:56:54;;;;;;;190.60;55.90;;;5.00;94.80;;;;;;5103915;27;20205;-69
2022/01/21 07:59:21;;;;;;;184.60;55.57;;;5.00;94.80;;;;;;5113906;28;20202;-69
2022/01/21 08:01:48;;;;;;;198.37;58.10;;;5.00;94.90;;;;;;5119892;27;20206;-69
2022/01/21 08:04:16;;;;;;;194.80;57.80;;;5.10;95.00;;;;;;5119278;27;20197;-69
2022/01/21 08:06:43;;;;;;;187.57;54.10;;;5.00;94.90;;;;;;5104323;28;20218;-68
2022/01/21 08:09:10;;;;;;;207.77;57.73;;;5.00;95.00;;;;;;5116818;27;20553;-69
2022/01/21 08:11:37;;;;;;;192.60;56.93;;;5.00;94.90;;;;;;5105173;28;20302;-68
2022/01/21 08:14:04;;;;;;;205.00;56.53;;;5.00;95.00;;;;;;5112542;28;20716;-68
2022/01/21 08:16:33;;;;;;;190.83;57.27;;;5.00;95.10;;;;;;5116267;28;20201;-68
2022/01/21 08:19:03;;;;;;;207.33;58.97;;;5.00;95.20;;;;;;5126845;27;20201;-68
2022/01/21 08:21:30;;;;;;;200.43;58.40;;;5.10;95.30;;;;;;5124909;27;20272;-68
2022/01/21 08:23:57;;;;;;;188.80;56.17;;;5.10;95.40;;;;;;5117246;27;20207;-68
2022/01/21 08:26:28;;;;;;;177.37;55.40;;;5.20;95.40;;;;;;5113399;28;20285;-68
2022/01/21 08:28:56;;;;;;;184.33;56.67;;;5.20;95.40;;;;;;5120621;27;20316;-68
2022/01/21 08:31:24;;;;;;;168.83;54.23;;;5.20;95.30;;;;;;5112664;28;20205;-68
2022/01/21 08:33:51;;;;;;;183.13;58.77;;;5.20;95.10;;;;;;5106197;28;20218;-68
2022/01/21 08:36:20;;;;;;;171.53;53.67;;;5.30;95.10;;;;;;5128980;28;20193;-69
2022/01/21 08:38:48;;;;;;;171.83;53.80;;;5.30;95.20;;;;;;5109575;28;20237;-68
2022/01/21 08:41:15;;;;;;;173.60;55.33;;;5.30;95.00;;;;;;5114270;28;20198;-68
2022/01/21 08:43:42;;;;;;;175.83;57.13;;;5.40;95.00;;;;;;5120130;28;20268;-68
2022/01/21 08:46:10;;;;;;;173.73;53.83;;;5.40;94.90;;;;;;5130041;27;20229;-69
2022/01/21 08:48:37;;;;;;;168.93;53.47;;;5.40;94.90;;;;;;5124377;27;20206;-67
2022/01/21 08:51:12;;;;;;;157.47;52.07;;;5.40;94.90;;;;;;5124102;27;20263;-67
2022/01/21 08:53:41;;;;;;;164.27;52.07;;;5.40;95.00;;;;;;5133506;27;20226;-67
2022/01/21 08:56:12;;;;;;;157.47;54.47;;;5.40;94.90;;;;;;5126709;27;20207;-67
2022/01/21 08:58:40;;;;;;;146.13;49.97;;;5.40;95.00;;;;;;5125667;27;20213;-67
2022/01/21 09:01:09;;;;;;;112.47;48.20;;;5.40;95.20;;;;;;5108876;27;20201;-67
2022/01/21 09:03:38;;;;;;;100.60;45.13;;;5.50;95.20;;;;;;5129345;27;20651;-68
2022/01/21 09:06:07;;;;;;;99.57;46.30;;;5.50;95.10;;;;;;5126695;27;20210;-67
2022/01/21 09:08:34;;;;;;;107.97;47.73;;;5.40;95.00;;;;;;5133325;27;20199;-67
2022/01/21 09:11:04;;;;;;;100.53;46.23;;;5.40;95.10;;;;;;5117953;28;20234;-67
2022/01/21 09:13:38;;;;;;;100.93;47.10;;;5.50;95.20;;;;;;5106366;28;20239;-68
2022/01/21 09:16:06;;;;;;;103.70;49.37;;;5.50;95.20;;;;;;5107743;28;20221;-68
2022/01/21 09:18:45;;;;;;;112.90;50.43;;;5.50;95.20;;;;;;5093572;27;20578;-68
2022/01/21 09:21:30;;;;;;;110.23;50.37;;;5.60;95.30;;;;;;5127464;27;20229;-68
2022/01/21 09:23:57;;;;;;;127.63;52.73;;;5.70;95.30;;;;;;5117101;27;20214;-68
2022/01/21 09:26:25;;;;;;;104.13;48.43;;;5.80;95.30;;;;;;5126227;27;20209;-68
2022/01/21 09:28:59;;;;;;;107.37;50.23;;;5.90;95.30;;;;;;5128711;27;20199;-68
2022/01/21 09:31:26;;;;;;;111.17;48.47;;;6.00;95.10;;;;;;5127523;27;20245;-68
2022/01/21 09:34:14;;;;;;;106.10;49.17;;;6.10;95.00;;;;;;5128406;27;20255;-68
2022/01/21 09:36:42;;;;;;;120.20;50.20;;;6.20;94.90;;;;;;5125255;27;20687;-68
2022/01/21 09:39:10;;;;;;;124.07;51.73;;;6.20;94.70;;;;;;5127550;27;20239;-68
2022/01/21 09:41:37;;;;;;;116.70;52.07;;;6.20;94.50;;;;;;5125280;27;20518;-68
2022/01/21 09:44:10;;;;;;;123.57;51.67;;;6.30;94.30;;;;;;5111715;27;20281;-68
2022/01/21 09:46:42;;;;;;;129.33;54.10;;;6.30;94.10;;;;;;5125350;27;20198;-68
2022/01/21 09:51:58;;;;;;;115.97;50.80;;;6.30;94.00;;;;;;5111807;28;20211;-68
2022/01/21 09:54:28;;;;;;;118.40;50.67;;;6.30;94.00;;;;;;5099554;27;20566;-68
2022/01/21 09:56:57;;;;;;;110.40;50.40;;;6.30;93.90;;;;;;5120889;27;20613;-68
2022/01/21 09:59:29;;;;;;;99.30;49.23;;;6.30;93.80;;;;;;5130027;27;20615;-68
2022/01/21 10:02:02;;;;;;;113.20;50.47;;;6.30;93.90;;;;;;5124929;27;20550;-68
2022/01/21 10:04:38;;;;;;;125.37;54.83;;;6.30;94.00;;;;;;5124744;27;20205;-68
2022/01/21 10:07:05;;;;;;;125.67;57.47;;;6.20;94.10;;;;;;5116179;27;20628;-68
2022/01/21 10:09:33;;;;;;;128.13;61.23;;;6.30;94.10;;;;;;5130376;27;20261;-68
2022/01/21 10:12:01;;;;;;;146.17;68.17;;;6.20;94.10;;;;;;5137895;27;20206;-68
2022/01/21 10:14:30;;;;;;;155.00;69.67;;;6.20;94.20;;;;;;5121915;27;20226;-68
2022/01/21 10:16:59;;;;;;;163.17;73.53;;;6.20;94.30;;;;;;5108358;27;20643;-68
2022/01/21 10:19:38;;;;;;;162.43;72.83;;;6.30;94.40;;;;;;5121740;27;20614;-68
2022/01/21 10:22:16;;;;;;;148.10;70.37;;;6.30;94.40;;;;;;5105534;27;20221;-68
2022/01/21 10:24:57;;;;;;;124.20;63.40;;;6.40;94.50;;;;;;5116402;27;20228;-68
2022/01/21 10:27:24;;;;;;;118.80;58.40;;;6.50;94.60;;;;;;5110779;27;20309;-68
2022/01/21 10:29:52;;;;;;;118.70;59.17;;;6.50;94.20;;;;;;5119902;27;20538;-69
2022/01/21 10:32:51;;;;;;;137.37;61.90;;;6.60;94.20;;;;;;5118735;27;20199;-71
2022/01/21 10:35:35;;;;;;;117.80;58.40;;;6.70;94.00;;;;;;5089905;27;20283;-70
2022/01/21 10:38:15;;;;;;;119.53;59.43;;;6.70;93.80;;;;;;5110603;28;20255;-70
2022/01/21 10:40:42;;;;;;;123.43;60.17;;;6.70;93.80;;;;;;5116656;27;20236;-70
2022/01/21 10:43:15;;;;;;;111.93;57.83;;;6.70;93.80;;;;;;5125520;27;20609;-70
2022/01/21 10:45:56;;;;;;;122.60;61.77;;;6.70;94.10;;;;;;5117240;27;20514;-70
2022/01/21 10:48:25;;;;;;;115.67;60.40;;;6.80;94.10;;;;;;5123070;27;20207;-70
2022/01/21 10:51:23;;;;;;;116.27;61.07;;;6.90;93.90;;;;;;5100280;28;20216;-70
2022/01/21 10:53:50;;;;;;;119.40;61.67;;;6.90;93.60;;;;;;5117442;27;20239;-70
2022/01/21 10:56:19;;;;;;;119.43;61.37;;;6.90;93.50;;;;;;5117577;27;20202;-70
2022/01/21 10:58:51;;;;;;;120.10;61.97;;;6.80;93.60;;;;;;5103441;28;20213;-70
2022/01/21 11:01:25;;;;;;;134.73;67.00;;;6.80;93.40;;;;;;5106808;27;20277;-70
2022/01/21 11:04:01;;;;;;;132.53;66.63;;;6.80;93.50;;;;;;5108862;27;20305;-70
2022/01/21 11:06:38;;;;;;;117.17;62.83;;;6.90;93.70;;;;;;5129310;27;20658;-70
2022/01/21 11:09:22;;;;;;;116.73;59.70;;;7.00;93.50;;;;;;5126983;27;20243;-70
2022/01/21 11:12:09;;;;;;;105.00;54.87;;;7.00;93.30;;;;;;5110324;27;20206;-70
2022/01/21 11:14:37;;;;;;;112.37;56.07;;;7.10;93.00;;;;;;5119217;27;20221;-70
2022/01/21 11:17:12;;;;;;;109.53;58.07;;;7.10;92.80;;;;;;5119352;27;20205;-70
2022/01/21 11:20:08;;;;;;;109.70;58.27;;;7.10;92.80;;;;;;5122123;27;20203;-70
2022/01/21 11:22:53;;;;;;;106.77;57.07;;;7.20;92.80;;;;;;5120332;27;20203;-70
2022/01/21 11:26:00;;;;;;;105.10;55.90;;;7.20;92.70;;;;;;5138359;27;20210;-70
2022/01/21 11:28:37;;;;;;;103.70;56.07;;;7.30;92.80;;;;;;5106435;28;20221;-70
2022/01/21 11:31:04;;;;;;;106.67;56.63;;;7.30;92.70;;;;;;5122346;27;20536;-70
2022/01/21 11:33:32;;;;;;;113.73;53.93;;;7.40;92.80;;;;;;5122458;27;20767;-70
2022/01/21 11:36:00;;;;;;;101.80;54.53;;;7.40;92.80;;;;;;5113073;27;20642;-70
2022/01/21 11:38:29;;;;;;;108.37;55.83;;;7.50;92.10;;;;;;5115757;28;20238;-70
2022/01/21 11:40:56;;;;;;;98.13;53.67;;;7.60;91.90;;;;;;5119449;27;20200;-70
2022/01/21 11:43:24;;;;;;;105.07;56.87;;;7.70;91.60;;;;;;5124310;27;20720;-70
2022/01/21 11:51:26;;;;;;;93.90;52.83;;;8.00;91.20;;;;;;5123643;27;20664;-70
2022/01/21 11:53:59;;;;;;;95.87;53.17;;;8.10;91.00;;;;;;5094737;27;20229;-70
2022/01/21 11:57:00;;;;;;;105.13;54.97;;;8.10;90.90;;;;;;5139593;27;20555;-70
2022/01/21 12:01:58;;;;;;;99.87;53.03;;;8.20;90.10;;;;;;5141902;27;20233;-71
2022/01/21 12:04:31;;;;;;;106.47;58.20;;;8.20;89.90;;;;;;5124508;27;20199;-71
2022/01/21 12:07:00;;;;;;;107.90;55.40;;;8.30;90.00;;;;;;5139895;27;20218;-70
2022/01/21 12:10:05;;;;;;;99.47;52.83;;;8.20;88.70;;;;;;5106421;28;20206;-70
2022/01/21 12:12:45;;;;;;;101.97;53.20;;;8.20;88.20;;;;;;5114835;28;20221;-70
2022/01/21 12:15:33;;;;;;;105.00;55.50;;;8.10;88.50;;;;;;5103397;28;20210;-70
2022/01/21 12:20:59;;;;;;;106.40;56.40;;;8.20;90.20;;;;;;5125299;27;20547;-70
2022/01/21 12:23:28;;;;;;;94.63;51.10;;;8.40;89.10;;;;;;5110611;28;20213;-70
2022/01/21 12:26:19;;;;;;;102.90;54.27;;;8.50;89.20;;;;;;5098235;28;20271;-71
2022/01/21 12:28:52;;;;;;;96.80;53.77;;;8.60;87.90;;;;;;5124196;27;20223;-70
2022/01/21 12:31:22;;;;;;;94.90;54.17;;;8.70;88.00;;;;;;5124293;27;20211;-70
2022/01/21 12:34:12;;;;;;;108.20;57.17;;;8.80;86.10;;;;;;5126264;28;20250;-70
2022/01/21 12:36:57;;;;;;;104.77;53.57;;;8.80;86.60;;;;;;5113074;28;20216;-69
2022/01/21 12:39:48;;;;;;;99.40;54.37;;;8.80;87.30;;;;;;5123298;28;20235;-70
2022/01/21 12:42:23;;;;;;;96.23;51.77;;;8.90;87.60;;;;;;5126461;28;20211;-70
2022/01/21 12:45:17;;;;;;;100.83;55.60;;;9.00;87.40;;;;;;5130357;28;20285;-70
2022/01/21 12:47:47;;;;;;;102.60;55.37;;;9.00;87.10;;;;;;5120377;28;20658;-70
2022/01/21 12:50:34;;;;;;;99.87;57.53;;;9.00;86.90;;;;;;5116938;28;20208;-71
2022/01/21 12:53:24;;;;;;;96.30;56.77;;;9.00;87.00;;;;;;5123380;28;20238;-70
2022/01/21 12:55:55;;;;;;;99.73;53.67;;;9.00;87.10;;;;;;5114310;28;20273;-70
2022/01/21 12:58:28;;;;;;;97.43;54.67;;;9.00;86.80;;;;;;5121808;28;20685;-70
2022/01/21 13:00:57;;;;;;;90.97;51.40;;;8.90;86.50;;;;;;5121238;28;20212;-70
2022/01/21 13:03:34;;;;;;;95.47;54.30;;;8.90;86.70;;;;;;5122945;28;20231;-70
2022/01/21 13:06:18;;;;;;;95.33;53.20;;;8.90;86.70;;;;;;5106327;28;20238;-70
2022/01/21 13:08:52;;;;;;;90.57;51.67;;;8.90;86.80;;;;;;5125012;28;20192;-70
2022/01/21 13:11:24;;;;;;;84.97;52.47;;;8.90;86.80;;;;;;5118023;28;20211;-70
2022/01/21 13:14:24;;;;;;;92.43;53.17;;;8.90;85.40;;;;;;5126620;28;20224;-70
2022/01/21 13:16:56;;;;;;;90.57;52.17;;;8.90;84.20;;;;;;5129160;28;20212;-71
2022/01/21 13:19:23;;;;;;;101.53;54.57;;;8.90;83.80;;;;;;5116311;28;20253;-71
2022/01/21 13:21:50;;;;;;;98.10;54.03;;;8.80;84.50;;;;;;5117103;28;20196;-70
2022/01/21 13:24:31;;;;;;;94.83;51.63;;;8.90;85.20;;;;;;5122898;28;20205;-70
2022/01/21 13:26:59;;;;;;;96.43;54.13;;;8.90;85.40;;;;;;5120689;28;20203;-70
2022/01/21 13:29:29;;;;;;;92.50;54.90;;;8.90;84.60;;;;;;5113643;28;20208;-70
2022/01/21 13:31:59;;;;;;;86.43;51.50;;;8.80;84.70;;;;;;5115170;28;20196;-70
2022/01/21 13:34:39;;;;;;;100.00;53.63;;;8.80;84.90;;;;;;5130447;27;20275;-70
2022/01/21 13:37:09;;;;;;;97.07;53.20;;;8.80;85.00;;;;;;5116259;27;20525;-71
2022/01/21 13:39:41;;;;;;;98.03;53.17;;;8.70;85.20;;;;;;5116925;27;20228;-70
2022/01/21 13:42:11;;;;;;;99.33;54.63;;;8.70;85.90;;;;;;5133688;27;20199;-70
2022/01/21 13:44:41;;;;;;;105.90;59.10;;;8.70;86.20;;;;;;5123721;27;20200;-70
2022/01/21 13:47:39;;;;;;;100.03;56.43;;;8.70;87.30;;;;;;5118776;27;20287;-70
2022/01/21 13:50:14;;;;;;;110.50;57.77;;;8.60;87.40;;;;;;5121116;27;20226;-70
2022/01/21 13:52:46;;;;;;;104.33;56.07;;;8.60;87.10;;;;;;5124399;27;20304;-70
2022/01/21 13:55:41;;;;;;;101.83;56.80;;;8.50;87.50;;;;;;5119954;27;20230;-70
2022/01/21 13:58:20;;;;;;;101.83;56.27;;;8.50;87.60;;;;;;5123326;27;20200;-70